sensor_id;sensor_type;location;lat;lon;timestamp;P1;durP1;ratioP1;P2;durP2;ratioP2
51927;SDS011;37953;52.806;18.270;2022-12-18T00:01:02;54.88;;;21.48;;
51927;SDS011;37953;52.806;18.270;2022-12-18T00:06:09;51.75;;;19.35;;
51927;SDS011;37953;52.806;18.270;2022-12-18T00:08:35;50.15;;;18.45;;
51927;SDS011;37953;52.806;18.270;2022-12-18T00:11:04;54.67;;;19.90;;
51927;SDS011;37953;52.806;18.270;2022-12-18T00:13:31;52.92;;;20.80;;
51927;SDS011;37953;52.806;18.270;2022-12-18T00:16:01;58.03;;;21.13;;
51927;SDS011;37953;52.806;18.270;2022-12-18T00:18:32;63.47;;;23.15;;
51927;SDS011;37953;52.806;18.270;2022-12-18T00:21:01;53.95;;;20.13;;
51927;SDS011;37953;52.806;18.270;2022-12-18T00:23:30;55.70;;;19.58;;
51927;SDS011;37953;52.806;18.270;2022-12-18T00:26:00;48.75;;;19.95;;
51927;SDS011;37953;52.806;18.270;2022-12-18T00:28:27;58.05;;;21.20;;
51927;SDS011;37953;52.806;18.270;2022-12-18T00:31:03;58.65;;;20.40;;
51927;SDS011;37953;52.806;18.270;2022-12-18T00:33:48;46.40;;;18.98;;
51927;SDS011;37953;52.806;18.270;2022-12-18T00:36:16;49.63;;;19.25;;
51927;SDS011;37953;52.806;18.270;2022-12-18T00:38:46;49.45;;;18.63;;
51927;SDS011;37953;52.806;18.270;2022-12-18T00:41:14;44.38;;;17.75;;
51927;SDS011;37953;52.806;18.270;2022-12-18T00:44:00;43.60;;;17.88;;
51927;SDS011;37953;52.806;18.270;2022-12-18T00:46:27;41.55;;;17.98;;
51927;SDS011;37953;52.806;18.270;2022-12-18T00:48:56;46.25;;;17.55;;
51927;SDS011;37953;52.806;18.270;2022-12-18T00:51:22;48.40;;;19.00;;
51927;SDS011;37953;52.806;18.270;2022-12-18T00:53:48;46.10;;;18.50;;
51927;SDS011;37953;52.806;18.270;2022-12-18T00:56:15;42.97;;;16.27;;
51927;SDS011;37953;52.806;18.270;2022-12-18T00:58:41;45.13;;;17.08;;
51927;SDS011;37953;52.806;18.270;2022-12-18T01:01:07;41.50;;;17.08;;
51927;SDS011;37953;52.806;18.270;2022-12-18T01:03:33;44.35;;;17.27;;
51927;SDS011;37953;52.806;18.270;2022-12-18T01:06:05;38.42;;;16.98;;
51927;SDS011;37953;52.806;18.270;2022-12-18T01:08:35;41.58;;;16.25;;
51927;SDS011;37953;52.806;18.270;2022-12-18T01:11:06;46.10;;;18.50;;
51927;SDS011;37953;52.806;18.270;2022-12-18T01:13:37;43.22;;;16.77;;
51927;SDS011;37953;52.806;18.270;2022-12-18T01:16:07;44.67;;;17.27;;
51927;SDS011;37953;52.806;18.270;2022-12-18T01:18:34;44.75;;;17.75;;
51927;SDS011;37953;52.806;18.270;2022-12-18T01:21:02;42.00;;;17.25;;
51927;SDS011;37953;52.806;18.270;2022-12-18T01:23:31;41.13;;;16.33;;
51927;SDS011;37953;52.806;18.270;2022-12-18T01:25:57;43.13;;;17.55;;
51927;SDS011;37953;52.806;18.270;2022-12-18T01:28:23;43.78;;;16.90;;
51927;SDS011;37953;52.806;18.270;2022-12-18T01:30:49;46.17;;;18.00;;
51927;SDS011;37953;52.806;18.270;2022-12-18T01:33:15;40.25;;;16.73;;
51927;SDS011;37953;52.806;18.270;2022-12-18T01:35:42;41.85;;;16.45;;
51927;SDS011;37953;52.806;18.270;2022-12-18T01:38:14;47.42;;;16.88;;
51927;SDS011;37953;52.806;18.270;2022-12-18T01:40:40;41.67;;;16.13;;
51927;SDS011;37953;52.806;18.270;2022-12-18T01:43:08;44.20;;;16.65;;
51927;SDS011;37953;52.806;18.270;2022-12-18T01:45:34;41.05;;;16.35;;
51927;SDS011;37953;52.806;18.270;2022-12-18T01:48:05;40.00;;;15.85;;
51927;SDS011;37953;52.806;18.270;2022-12-18T01:50:43;43.63;;;16.40;;
51927;SDS011;37953;52.806;18.270;2022-12-18T01:53:16;40.00;;;16.67;;
51927;SDS011;37953;52.806;18.270;2022-12-18T01:55:46;36.70;;;16.13;;
51927;SDS011;37953;52.806;18.270;2022-12-18T01:58:14;45.03;;;17.77;;
51927;SDS011;37953;52.806;18.270;2022-12-18T02:00:41;43.53;;;17.13;;
51927;SDS011;37953;52.806;18.270;2022-12-18T02:03:07;48.35;;;18.38;;
51927;SDS011;37953;52.806;18.270;2022-12-18T02:10:58;51.70;;;19.13;;
51927;SDS011;37953;52.806;18.270;2022-12-18T02:13:53;48.50;;;18.98;;
51927;SDS011;37953;52.806;18.270;2022-12-18T02:16:39;53.00;;;19.45;;
51927;SDS011;37953;52.806;18.270;2022-12-18T02:19:53;52.95;;;19.35;;
51927;SDS011;37953;52.806;18.270;2022-12-18T02:27:56;62.03;;;20.40;;
51927;SDS011;37953;52.806;18.270;2022-12-18T02:30:26;54.33;;;19.07;;
51927;SDS011;37953;52.806;18.270;2022-12-18T02:32:55;57.47;;;20.52;;
51927;SDS011;37953;52.806;18.270;2022-12-18T02:35:23;51.40;;;19.55;;
51927;SDS011;37953;52.806;18.270;2022-12-18T02:37:53;56.30;;;20.33;;
51927;SDS011;37953;52.806;18.270;2022-12-18T02:40:24;59.13;;;19.63;;
51927;SDS011;37953;52.806;18.270;2022-12-18T02:42:51;61.10;;;20.70;;
51927;SDS011;37953;52.806;18.270;2022-12-18T02:45:17;57.38;;;19.63;;
51927;SDS011;37953;52.806;18.270;2022-12-18T02:47:45;51.17;;;19.52;;
51927;SDS011;37953;52.806;18.270;2022-12-18T02:58:40;57.53;;;20.15;;
51927;SDS011;37953;52.806;18.270;2022-12-18T03:04:14;52.00;;;18.67;;
51927;SDS011;37953;52.806;18.270;2022-12-18T03:07:02;61.10;;;20.48;;
51927;SDS011;37953;52.806;18.270;2022-12-18T03:09:35;53.75;;;19.45;;
51927;SDS011;37953;52.806;18.270;2022-12-18T03:12:15;52.40;;;18.65;;
51927;SDS011;37953;52.806;18.270;2022-12-18T03:15:00;54.22;;;18.45;;
51927;SDS011;37953;52.806;18.270;2022-12-18T03:17:31;53.72;;;18.17;;
51927;SDS011;37953;52.806;18.270;2022-12-18T03:20:02;51.30;;;18.65;;
51927;SDS011;37953;52.806;18.270;2022-12-18T03:22:32;64.15;;;19.33;;
51927;SDS011;37953;52.806;18.270;2022-12-18T03:25:01;53.55;;;18.17;;
51927;SDS011;37953;52.806;18.270;2022-12-18T03:27:31;53.05;;;18.23;;
51927;SDS011;37953;52.806;18.270;2022-12-18T03:30:03;52.63;;;18.02;;
51927;SDS011;37953;52.806;18.270;2022-12-18T03:32:40;51.20;;;17.52;;
51927;SDS011;37953;52.806;18.270;2022-12-18T03:35:26;51.85;;;17.15;;
51927;SDS011;37953;52.806;18.270;2022-12-18T03:37:56;48.90;;;17.60;;
51927;SDS011;37953;52.806;18.270;2022-12-18T03:40:24;43.60;;;17.15;;
51927;SDS011;37953;52.806;18.270;2022-12-18T03:49:09;50.03;;;17.92;;
51927;SDS011;37953;52.806;18.270;2022-12-18T03:54:40;60.30;;;20.00;;
51927;SDS011;37953;52.806;18.270;2022-12-18T03:57:14;58.28;;;18.58;;
51927;SDS011;37953;52.806;18.270;2022-12-18T03:59:44;56.58;;;20.55;;
51927;SDS011;37953;52.806;18.270;2022-12-18T04:02:12;54.30;;;18.98;;
51927;SDS011;37953;52.806;18.270;2022-12-18T04:04:46;56.08;;;18.70;;
51927;SDS011;37953;52.806;18.270;2022-12-18T04:07:16;60.47;;;19.00;;
51927;SDS011;37953;52.806;18.270;2022-12-18T04:09:42;61.85;;;19.75;;
51927;SDS011;37953;52.806;18.270;2022-12-18T04:12:11;52.60;;;19.25;;
51927;SDS011;37953;52.806;18.270;2022-12-18T04:14:37;56.10;;;19.65;;
51927;SDS011;37953;52.806;18.270;2022-12-18T04:17:03;59.25;;;19.60;;
51927;SDS011;37953;52.806;18.270;2022-12-18T04:19:29;61.65;;;20.88;;
51927;SDS011;37953;52.806;18.270;2022-12-18T04:21:55;63.25;;;21.00;;
51927;SDS011;37953;52.806;18.270;2022-12-18T04:24:21;54.38;;;19.63;;
51927;SDS011;37953;52.806;18.270;2022-12-18T04:26:48;56.65;;;19.67;;
51927;SDS011;37953;52.806;18.270;2022-12-18T04:29:14;55.08;;;20.08;;
51927;SDS011;37953;52.806;18.270;2022-12-18T04:31:40;52.80;;;19.23;;
51927;SDS011;37953;52.806;18.270;2022-12-18T04:34:06;59.10;;;20.02;;
51927;SDS011;37953;52.806;18.270;2022-12-18T04:36:32;53.00;;;19.33;;
51927;SDS011;37953;52.806;18.270;2022-12-18T04:38:58;59.05;;;20.83;;
51927;SDS011;37953;52.806;18.270;2022-12-18T04:41:24;66.15;;;20.55;;
51927;SDS011;37953;52.806;18.270;2022-12-18T04:43:50;69.10;;;21.77;;
51927;SDS011;37953;52.806;18.270;2022-12-18T04:46:16;64.45;;;20.15;;
51927;SDS011;37953;52.806;18.270;2022-12-18T04:48:44;63.08;;;21.88;;
51927;SDS011;37953;52.806;18.270;2022-12-18T04:51:11;63.22;;;20.98;;
51927;SDS011;37953;52.806;18.270;2022-12-18T04:53:37;64.40;;;22.13;;
51927;SDS011;37953;52.806;18.270;2022-12-18T04:56:04;66.32;;;21.48;;
51927;SDS011;37953;52.806;18.270;2022-12-18T04:58:35;60.47;;;21.83;;
51927;SDS011;37953;52.806;18.270;2022-12-18T05:01:09;64.45;;;22.08;;
51927;SDS011;37953;52.806;18.270;2022-12-18T05:03:36;57.10;;;21.33;;
51927;SDS011;37953;52.806;18.270;2022-12-18T05:06:03;63.28;;;21.55;;
51927;SDS011;37953;52.806;18.270;2022-12-18T05:08:31;63.22;;;21.52;;
51927;SDS011;37953;52.806;18.270;2022-12-18T05:11:02;63.30;;;21.23;;
51927;SDS011;37953;52.806;18.270;2022-12-18T05:13:30;66.15;;;21.67;;
51927;SDS011;37953;52.806;18.270;2022-12-18T05:15:57;56.17;;;21.15;;
51927;SDS011;37953;52.806;18.270;2022-12-18T05:18:23;58.03;;;20.85;;
51927;SDS011;37953;52.806;18.270;2022-12-18T05:20:50;54.13;;;19.70;;
51927;SDS011;37953;52.806;18.270;2022-12-18T05:23:17;62.10;;;21.13;;
51927;SDS011;37953;52.806;18.270;2022-12-18T05:25:54;67.40;;;21.38;;
51927;SDS011;37953;52.806;18.270;2022-12-18T05:28:22;59.10;;;20.60;;
51927;SDS011;37953;52.806;18.270;2022-12-18T05:30:50;67.82;;;22.27;;
51927;SDS011;37953;52.806;18.270;2022-12-18T05:33:23;67.32;;;22.48;;
51927;SDS011;37953;52.806;18.270;2022-12-18T05:35:51;68.10;;;23.25;;
51927;SDS011;37953;52.806;18.270;2022-12-18T05:38:30;72.50;;;22.75;;
51927;SDS011;37953;52.806;18.270;2022-12-18T05:40:58;77.70;;;24.65;;
51927;SDS011;37953;52.806;18.270;2022-12-18T05:43:24;84.60;;;23.88;;
51927;SDS011;37953;52.806;18.270;2022-12-18T05:45:57;87.28;;;26.23;;
51927;SDS011;37953;52.806;18.270;2022-12-18T05:48:23;73.18;;;24.33;;
51927;SDS011;37953;52.806;18.270;2022-12-18T05:50:50;69.85;;;22.88;;
51927;SDS011;37953;52.806;18.270;2022-12-18T05:53:17;64.25;;;21.92;;
51927;SDS011;37953;52.806;18.270;2022-12-18T05:55:45;65.82;;;19.92;;
51927;SDS011;37953;52.806;18.270;2022-12-18T05:58:16;62.33;;;20.20;;
51927;SDS011;37953;52.806;18.270;2022-12-18T06:00:44;68.60;;;20.42;;
51927;SDS011;37953;52.806;18.270;2022-12-18T06:03:11;63.65;;;19.15;;
51927;SDS011;37953;52.806;18.270;2022-12-18T06:05:40;64.30;;;19.15;;
51927;SDS011;37953;52.806;18.270;2022-12-18T06:08:07;59.70;;;20.05;;
51927;SDS011;37953;52.806;18.270;2022-12-18T06:10:34;62.45;;;19.42;;
51927;SDS011;37953;52.806;18.270;2022-12-18T06:13:00;59.00;;;19.77;;
51927;SDS011;37953;52.806;18.270;2022-12-18T06:15:27;58.13;;;20.45;;
51927;SDS011;37953;52.806;18.270;2022-12-18T06:17:53;66.55;;;21.23;;
51927;SDS011;37953;52.806;18.270;2022-12-18T06:20:19;77.68;;;24.27;;
51927;SDS011;37953;52.806;18.270;2022-12-18T06:22:46;99.38;;;26.73;;
51927;SDS011;37953;52.806;18.270;2022-12-18T06:25:12;82.85;;;26.48;;
51927;SDS011;37953;52.806;18.270;2022-12-18T06:27:44;76.70;;;25.00;;
51927;SDS011;37953;52.806;18.270;2022-12-18T06:30:12;89.70;;;26.27;;
51927;SDS011;37953;52.806;18.270;2022-12-18T06:32:39;83.55;;;25.98;;
51927;SDS011;37953;52.806;18.270;2022-12-18T06:35:06;101.18;;;29.58;;
51927;SDS011;37953;52.806;18.270;2022-12-18T06:37:32;107.38;;;29.00;;
51927;SDS011;37953;52.806;18.270;2022-12-18T06:40:01;85.82;;;26.13;;
51927;SDS011;37953;52.806;18.270;2022-12-18T06:42:28;90.68;;;28.80;;
51927;SDS011;37953;52.806;18.270;2022-12-18T06:44:54;108.82;;;33.03;;
51927;SDS011;37953;52.806;18.270;2022-12-18T06:47:20;115.00;;;31.67;;
51927;SDS011;37953;52.806;18.270;2022-12-18T06:49:46;96.70;;;28.92;;
51927;SDS011;37953;52.806;18.270;2022-12-18T06:52:12;94.90;;;30.55;;
51927;SDS011;37953;52.806;18.270;2022-12-18T06:54:39;91.68;;;29.45;;
51927;SDS011;37953;52.806;18.270;2022-12-18T06:57:04;100.57;;;31.77;;
51927;SDS011;37953;52.806;18.270;2022-12-18T06:59:31;116.80;;;30.63;;
51927;SDS011;37953;52.806;18.270;2022-12-18T07:01:57;125.88;;;30.35;;
51927;SDS011;37953;52.806;18.270;2022-12-18T07:04:27;146.00;;;32.95;;
51927;SDS011;37953;52.806;18.270;2022-12-18T07:06:56;168.25;;;37.58;;
51927;SDS011;37953;52.806;18.270;2022-12-18T07:09:23;171.27;;;38.60;;
51927;SDS011;37953;52.806;18.270;2022-12-18T07:11:49;158.32;;;36.00;;
51927;SDS011;37953;52.806;18.270;2022-12-18T07:14:15;165.30;;;40.95;;
51927;SDS011;37953;52.806;18.270;2022-12-18T07:16:41;192.25;;;41.72;;
51927;SDS011;37953;52.806;18.270;2022-12-18T07:19:08;244.85;;;50.05;;
51927;SDS011;37953;52.806;18.270;2022-12-18T07:21:33;213.98;;;47.78;;
51927;SDS011;37953;52.806;18.270;2022-12-18T07:24:00;201.95;;;44.88;;
51927;SDS011;37953;52.806;18.270;2022-12-18T07:26:25;168.57;;;41.28;;
51927;SDS011;37953;52.806;18.270;2022-12-18T07:28:54;156.00;;;41.03;;
51927;SDS011;37953;52.806;18.270;2022-12-18T07:31:22;149.13;;;38.38;;
51927;SDS011;37953;52.806;18.270;2022-12-18T07:33:50;111.72;;;31.90;;
51927;SDS011;37953;52.806;18.270;2022-12-18T07:36:16;134.73;;;33.95;;
51927;SDS011;37953;52.806;18.270;2022-12-18T07:38:46;105.07;;;30.00;;
51927;SDS011;37953;52.806;18.270;2022-12-18T07:41:12;93.30;;;28.45;;
51927;SDS011;37953;52.806;18.270;2022-12-18T07:43:40;103.63;;;29.50;;
51927;SDS011;37953;52.806;18.270;2022-12-18T07:46:07;109.97;;;31.38;;
51927;SDS011;37953;52.806;18.270;2022-12-18T07:48:34;118.00;;;31.98;;
51927;SDS011;37953;52.806;18.270;2022-12-18T07:51:01;106.93;;;29.25;;
51927;SDS011;37953;52.806;18.270;2022-12-18T07:53:34;100.97;;;29.77;;
51927;SDS011;37953;52.806;18.270;2022-12-18T07:56:07;94.50;;;29.10;;
51927;SDS011;37953;52.806;18.270;2022-12-18T07:58:36;89.68;;;26.90;;
51927;SDS011;37953;52.806;18.270;2022-12-18T08:01:10;100.80;;;31.42;;
51927;SDS011;37953;52.806;18.270;2022-12-18T08:03:37;101.20;;;29.52;;
51927;SDS011;37953;52.806;18.270;2022-12-18T08:06:10;101.78;;;28.63;;
51927;SDS011;37953;52.806;18.270;2022-12-18T08:08:36;126.70;;;32.58;;
51927;SDS011;37953;52.806;18.270;2022-12-18T08:11:02;164.13;;;39.83;;
51927;SDS011;37953;52.806;18.270;2022-12-18T08:13:29;190.13;;;41.95;;
51927;SDS011;37953;52.806;18.270;2022-12-18T08:15:56;172.10;;;41.92;;
51927;SDS011;37953;52.806;18.270;2022-12-18T08:18:23;104.82;;;30.42;;
51927;SDS011;37953;52.806;18.270;2022-12-18T08:20:49;90.43;;;25.60;;
51927;SDS011;37953;52.806;18.270;2022-12-18T08:23:15;83.05;;;26.95;;
51927;SDS011;37953;52.806;18.270;2022-12-18T08:25:48;82.75;;;26.77;;
51927;SDS011;37953;52.806;18.270;2022-12-18T08:28:14;74.15;;;24.85;;
51927;SDS011;37953;52.806;18.270;2022-12-18T08:30:41;73.85;;;23.70;;
51927;SDS011;37953;52.806;18.270;2022-12-18T08:33:08;83.50;;;27.40;;
51927;SDS011;37953;52.806;18.270;2022-12-18T08:35:36;91.82;;;27.70;;
51927;SDS011;37953;52.806;18.270;2022-12-18T08:38:03;88.35;;;28.42;;
51927;SDS011;37953;52.806;18.270;2022-12-18T08:40:29;100.97;;;28.90;;
51927;SDS011;37953;52.806;18.270;2022-12-18T08:42:55;98.10;;;29.42;;
51927;SDS011;37953;52.806;18.270;2022-12-18T08:45:39;123.65;;;48.33;;
51927;SDS011;37953;52.806;18.270;2022-12-18T08:48:06;96.68;;;29.65;;
51927;SDS011;37953;52.806;18.270;2022-12-18T08:50:31;109.53;;;31.13;;
51927;SDS011;37953;52.806;18.270;2022-12-18T08:52:58;97.85;;;30.27;;
51927;SDS011;37953;52.806;18.270;2022-12-18T08:55:27;100.32;;;31.77;;
51927;SDS011;37953;52.806;18.270;2022-12-18T08:57:54;97.03;;;29.15;;
51927;SDS011;37953;52.806;18.270;2022-12-18T09:00:20;88.43;;;27.30;;
51927;SDS011;37953;52.806;18.270;2022-12-18T09:02:47;92.00;;;28.55;;
51927;SDS011;37953;52.806;18.270;2022-12-18T09:05:16;92.32;;;29.40;;
51927;SDS011;37953;52.806;18.270;2022-12-18T09:07:43;112.63;;;32.60;;
51927;SDS011;37953;52.806;18.270;2022-12-18T09:10:09;117.78;;;35.08;;
51927;SDS011;37953;52.806;18.270;2022-12-18T09:12:35;116.55;;;33.80;;
51927;SDS011;37953;52.806;18.270;2022-12-18T09:15:01;105.75;;;30.83;;
51927;SDS011;37953;52.806;18.270;2022-12-18T09:17:27;123.30;;;37.58;;
51927;SDS011;37953;52.806;18.270;2022-12-18T09:19:53;111.22;;;34.05;;
51927;SDS011;37953;52.806;18.270;2022-12-18T09:22:19;111.97;;;36.67;;
51927;SDS011;37953;52.806;18.270;2022-12-18T09:24:45;96.25;;;32.95;;
51927;SDS011;37953;52.806;18.270;2022-12-18T09:27:11;100.22;;;31.67;;
51927;SDS011;37953;52.806;18.270;2022-12-18T09:29:37;91.40;;;31.73;;
51927;SDS011;37953;52.806;18.270;2022-12-18T09:32:03;101.05;;;31.50;;
51927;SDS011;37953;52.806;18.270;2022-12-18T09:34:29;93.05;;;30.77;;
51927;SDS011;37953;52.806;18.270;2022-12-18T09:36:55;105.43;;;32.58;;
51927;SDS011;37953;52.806;18.270;2022-12-18T09:39:21;95.40;;;31.73;;
51927;SDS011;37953;52.806;18.270;2022-12-18T09:41:51;103.75;;;33.10;;
51927;SDS011;37953;52.806;18.270;2022-12-18T09:49:44;101.60;;;33.75;;
51927;SDS011;37953;52.806;18.270;2022-12-18T09:52:33;106.65;;;34.30;;
51927;SDS011;37953;52.806;18.270;2022-12-18T09:57:33;95.65;;;32.42;;
51927;SDS011;37953;52.806;18.270;2022-12-18T10:00:18;106.07;;;35.45;;
51927;SDS011;37953;52.806;18.270;2022-12-18T10:02:46;104.32;;;35.88;;
51927;SDS011;37953;52.806;18.270;2022-12-18T10:05:14;99.80;;;35.28;;
51927;SDS011;37953;52.806;18.270;2022-12-18T10:10:48;168.68;;;51.95;;
51927;SDS011;37953;52.806;18.270;2022-12-18T10:16:23;135.32;;;45.05;;
51927;SDS011;37953;52.806;18.270;2022-12-18T10:19:45;111.93;;;35.95;;
51927;SDS011;37953;52.806;18.270;2022-12-18T10:27:16;104.38;;;35.50;;
51927;SDS011;37953;52.806;18.270;2022-12-18T10:29:44;116.72;;;37.60;;
51927;SDS011;37953;52.806;18.270;2022-12-18T10:32:15;130.07;;;42.17;;
51927;SDS011;37953;52.806;18.270;2022-12-18T10:34:45;111.43;;;39.65;;
51927;SDS011;37953;52.806;18.270;2022-12-18T10:37:19;156.40;;;44.63;;
51927;SDS011;37953;52.806;18.270;2022-12-18T10:40:04;164.30;;;48.13;;
51927;SDS011;37953;52.806;18.270;2022-12-18T10:42:44;139.80;;;41.35;;
51927;SDS011;37953;52.806;18.270;2022-12-18T10:45:12;139.63;;;41.60;;
51927;SDS011;37953;52.806;18.270;2022-12-18T10:47:43;148.02;;;44.10;;
51927;SDS011;37953;52.806;18.270;2022-12-18T10:53:00;133.98;;;43.60;;
51927;SDS011;37953;52.806;18.270;2022-12-18T10:55:35;143.68;;;44.35;;
51927;SDS011;37953;52.806;18.270;2022-12-18T10:58:18;138.25;;;38.40;;
51927;SDS011;37953;52.806;18.270;2022-12-18T11:03:43;189.82;;;51.88;;
51927;SDS011;37953;52.806;18.270;2022-12-18T11:08:42;157.77;;;45.05;;
51927;SDS011;37953;52.806;18.270;2022-12-18T11:11:20;167.32;;;47.40;;
51927;SDS011;37953;52.806;18.270;2022-12-18T11:13:54;198.45;;;50.78;;
51927;SDS011;37953;52.806;18.270;2022-12-18T11:16:32;140.32;;;39.53;;
51927;SDS011;37953;52.806;18.270;2022-12-18T11:22:19;115.93;;;36.88;;
51927;SDS011;37953;52.806;18.270;2022-12-18T11:24:55;104.00;;;36.40;;
51927;SDS011;37953;52.806;18.270;2022-12-18T11:27:26;119.25;;;38.72;;
51927;SDS011;37953;52.806;18.270;2022-12-18T11:30:06;115.38;;;38.72;;
51927;SDS011;37953;52.806;18.270;2022-12-18T11:32:49;92.93;;;30.25;;
51927;SDS011;37953;52.806;18.270;2022-12-18T11:38:35;77.75;;;23.30;;
51927;SDS011;37953;52.806;18.270;2022-12-18T11:47:20;115.13;;;35.00;;
51927;SDS011;37953;52.806;18.270;2022-12-18T11:49:59;114.32;;;36.25;;
51927;SDS011;37953;52.806;18.270;2022-12-18T11:52:32;115.10;;;38.08;;
51927;SDS011;37953;52.806;18.270;2022-12-18T11:55:09;108.50;;;36.07;;
51927;SDS011;37953;52.806;18.270;2022-12-18T11:57:40;101.35;;;31.80;;
51927;SDS011;37953;52.806;18.270;2022-12-18T12:00:21;100.43;;;33.15;;
51927;SDS011;37953;52.806;18.270;2022-12-18T12:08:27;114.05;;;35.90;;
51927;SDS011;37953;52.806;18.270;2022-12-18T12:17:03;91.28;;;27.98;;
51927;SDS011;37953;52.806;18.270;2022-12-18T12:22:24;87.50;;;26.48;;
51927;SDS011;37953;52.806;18.270;2022-12-18T12:30:29;115.75;;;38.70;;
51927;SDS011;37953;52.806;18.270;2022-12-18T12:39:18;115.35;;;36.30;;
51927;SDS011;37953;52.806;18.270;2022-12-18T12:41:48;138.85;;;43.05;;
51927;SDS011;37953;52.806;18.270;2022-12-18T12:44:51;171.40;;;47.90;;
51927;SDS011;37953;52.806;18.270;2022-12-18T12:47:24;156.50;;;45.00;;
51927;SDS011;37953;52.806;18.270;2022-12-18T12:49:54;156.18;;;44.50;;
51927;SDS011;37953;52.806;18.270;2022-12-18T12:52:41;149.00;;;44.00;;
51927;SDS011;37953;52.806;18.270;2022-12-18T12:55:21;161.43;;;46.13;;
51927;SDS011;37953;52.806;18.270;2022-12-18T13:06:18;121.00;;;33.88;;
51927;SDS011;37953;52.806;18.270;2022-12-18T13:09:10;113.43;;;35.63;;
51927;SDS011;37953;52.806;18.270;2022-12-18T13:14:28;120.05;;;34.90;;
51927;SDS011;37953;52.806;18.270;2022-12-18T13:17:16;105.40;;;33.00;;
51927;SDS011;37953;52.806;18.270;2022-12-18T13:19:50;111.30;;;34.85;;
51927;SDS011;37953;52.806;18.270;2022-12-18T13:22:22;113.50;;;34.47;;
51927;SDS011;37953;52.806;18.270;2022-12-18T13:24:49;112.50;;;37.83;;
51927;SDS011;37953;52.806;18.270;2022-12-18T13:40:57;91.35;;;29.73;;
51927;SDS011;37953;52.806;18.270;2022-12-18T13:43:35;99.82;;;30.58;;
51927;SDS011;37953;52.806;18.270;2022-12-18T13:46:24;100.45;;;30.30;;
51927;SDS011;37953;52.806;18.270;2022-12-18T13:51:55;99.18;;;31.98;;
51927;SDS011;37953;52.806;18.270;2022-12-18T13:54:25;109.72;;;32.33;;
51927;SDS011;37953;52.806;18.270;2022-12-18T14:00:14;95.28;;;30.73;;
51927;SDS011;37953;52.806;18.270;2022-12-18T14:02:48;99.35;;;31.15;;
51927;SDS011;37953;52.806;18.270;2022-12-18T14:05:29;108.85;;;34.70;;
51927;SDS011;37953;52.806;18.270;2022-12-18T14:08:03;112.15;;;35.97;;
51927;SDS011;37953;52.806;18.270;2022-12-18T14:10:43;117.93;;;34.20;;
51927;SDS011;37953;52.806;18.270;2022-12-18T14:13:19;120.13;;;45.47;;
51927;SDS011;37953;52.806;18.270;2022-12-18T14:16:03;170.57;;;60.95;;
51927;SDS011;37953;52.806;18.270;2022-12-18T14:21:20;121.85;;;40.42;;
51927;SDS011;37953;52.806;18.270;2022-12-18T14:23:49;102.88;;;33.38;;
51927;SDS011;37953;52.806;18.270;2022-12-18T14:26:42;115.63;;;34.15;;
51927;SDS011;37953;52.806;18.270;2022-12-18T14:29:23;124.88;;;41.28;;
51927;SDS011;37953;52.806;18.270;2022-12-18T14:32:06;111.93;;;37.00;;
51927;SDS011;37953;52.806;18.270;2022-12-18T14:34:36;128.55;;;43.60;;
51927;SDS011;37953;52.806;18.270;2022-12-18T14:37:02;152.95;;;46.70;;
51927;SDS011;37953;52.806;18.270;2022-12-18T14:39:29;173.95;;;49.28;;
51927;SDS011;37953;52.806;18.270;2022-12-18T14:41:55;180.55;;;53.08;;
51927;SDS011;37953;52.806;18.270;2022-12-18T14:44:21;168.05;;;47.83;;
51927;SDS011;37953;52.806;18.270;2022-12-18T14:46:49;159.10;;;46.72;;
51927;SDS011;37953;52.806;18.270;2022-12-18T14:52:26;162.93;;;49.70;;
51927;SDS011;37953;52.806;18.270;2022-12-18T14:55:03;148.60;;;47.30;;
51927;SDS011;37953;52.806;18.270;2022-12-18T14:57:32;152.45;;;46.97;;
51927;SDS011;37953;52.806;18.270;2022-12-18T15:00:04;131.45;;;42.40;;
51927;SDS011;37953;52.806;18.270;2022-12-18T15:02:34;115.95;;;37.67;;
51927;SDS011;37953;52.806;18.270;2022-12-18T15:05:14;133.70;;;40.88;;
51927;SDS011;37953;52.806;18.270;2022-12-18T15:07:47;142.60;;;40.50;;
51927;SDS011;37953;52.806;18.270;2022-12-18T15:10:21;141.40;;;41.22;;
51927;SDS011;37953;52.806;18.270;2022-12-18T15:18:02;128.55;;;38.67;;
51927;SDS011;37953;52.806;18.270;2022-12-18T15:20:32;127.45;;;38.72;;
51927;SDS011;37953;52.806;18.270;2022-12-18T15:23:26;156.95;;;45.25;;
51927;SDS011;37953;52.806;18.270;2022-12-18T15:28:32;146.77;;;40.53;;
51927;SDS011;37953;52.806;18.270;2022-12-18T15:33:39;139.70;;;43.50;;
51927;SDS011;37953;52.806;18.270;2022-12-18T15:36:09;120.22;;;41.78;;
51927;SDS011;37953;52.806;18.270;2022-12-18T15:38:36;124.68;;;40.67;;
51927;SDS011;37953;52.806;18.270;2022-12-18T15:41:03;111.40;;;37.90;;
51927;SDS011;37953;52.806;18.270;2022-12-18T15:43:29;113.05;;;36.28;;
51927;SDS011;37953;52.806;18.270;2022-12-18T15:46:06;124.63;;;39.47;;
51927;SDS011;37953;52.806;18.270;2022-12-18T15:48:44;111.25;;;37.55;;
51927;SDS011;37953;52.806;18.270;2022-12-18T15:51:18;118.38;;;37.10;;
51927;SDS011;37953;52.806;18.270;2022-12-18T15:53:46;116.25;;;36.47;;
51927;SDS011;37953;52.806;18.270;2022-12-18T15:56:14;123.25;;;40.80;;
51927;SDS011;37953;52.806;18.270;2022-12-18T15:59:00;106.93;;;33.28;;
51927;SDS011;37953;52.806;18.270;2022-12-18T16:01:28;126.18;;;37.92;;
51927;SDS011;37953;52.806;18.270;2022-12-18T16:03:55;109.10;;;34.40;;
51927;SDS011;37953;52.806;18.270;2022-12-18T16:06:21;102.57;;;32.75;;
51927;SDS011;37953;52.806;18.270;2022-12-18T16:08:48;120.72;;;35.90;;
51927;SDS011;37953;52.806;18.270;2022-12-18T16:11:28;109.57;;;35.42;;
51927;SDS011;37953;52.806;18.270;2022-12-18T16:14:25;113.32;;;35.08;;
51927;SDS011;37953;52.806;18.270;2022-12-18T16:16:55;111.10;;;33.80;;
51927;SDS011;37953;52.806;18.270;2022-12-18T16:19:23;107.53;;;34.67;;
51927;SDS011;37953;52.806;18.270;2022-12-18T16:21:51;101.18;;;31.25;;
51927;SDS011;37953;52.806;18.270;2022-12-18T16:24:23;110.23;;;32.53;;
51927;SDS011;37953;52.806;18.270;2022-12-18T16:26:50;111.47;;;33.10;;
51927;SDS011;37953;52.806;18.270;2022-12-18T16:29:24;94.97;;;30.50;;
51927;SDS011;37953;52.806;18.270;2022-12-18T16:31:59;92.45;;;30.35;;
51927;SDS011;37953;52.806;18.270;2022-12-18T16:34:27;88.75;;;28.17;;
51927;SDS011;37953;52.806;18.270;2022-12-18T16:36:55;97.78;;;31.23;;
51927;SDS011;37953;52.806;18.270;2022-12-18T16:39:31;101.13;;;30.83;;
51927;SDS011;37953;52.806;18.270;2022-12-18T16:41:58;118.57;;;35.40;;
51927;SDS011;37953;52.806;18.270;2022-12-18T16:44:24;126.50;;;35.60;;
51927;SDS011;37953;52.806;18.270;2022-12-18T16:46:50;111.13;;;32.33;;
51927;SDS011;37953;52.806;18.270;2022-12-18T16:49:17;122.70;;;37.55;;
51927;SDS011;37953;52.806;18.270;2022-12-18T16:51:45;142.50;;;40.13;;